sensor_id;sensor_type;location;lat;lon;timestamp;temperature;humidity
62904;DHT22;49000;50.698;13.322;2023-11-19T00:00:19;2.50;99.90
62904;DHT22;49000;50.698;13.322;2023-11-19T00:02:44;2.40;99.90
62904;DHT22;49000;50.698;13.322;2023-11-19T00:05:11;2.00;99.90
62904;DHT22;49000;50.698;13.322;2023-11-19T00:07:40;2.60;99.90
62904;DHT22;49000;50.698;13.322;2023-11-19T00:10:12;2.40;99.90
62904;DHT22;49000;50.698;13.322;2023-11-19T00:12:39;2.70;99.90
62904;DHT22;49000;50.698;13.322;2023-11-19T00:15:06;2.70;99.90
62904;DHT22;49000;50.698;13.322;2023-11-19T00:17:39;2.30;99.90
62904;DHT22;49000;50.698;13.322;2023-11-19T00:20:06;2.40;99.90
62904;DHT22;49000;50.698;13.322;2023-11-19T00:22:32;2.50;99.90
62904;DHT22;49000;50.698;13.322;2023-11-19T00:24:58;2.50;99.90
62904;DHT22;49000;50.698;13.322;2023-11-19T00:27:24;2.50;99.90
62904;DHT22;49000;50.698;13.322;2023-11-19T00:29:50;1.90;99.90
62904;DHT22;49000;50.698;13.322;2023-11-19T00:32:15;2.50;99.90
62904;DHT22;49000;50.698;13.322;2023-11-19T00:34:44;2.50;99.90
62904;DHT22;49000;50.698;13.322;2023-11-19T00:37:09;2.50;99.90
62904;DHT22;49000;50.698;13.322;2023-11-19T00:39:35;2.40;99.90
62904;DHT22;49000;50.698;13.322;2023-11-19T00:42:00;2.40;99.90
62904;DHT22;49000;50.698;13.322;2023-11-19T00:44:26;2.40;99.90
62904;DHT22;49000;50.698;13.322;2023-11-19T00:46:51;2.50;99.90
62904;DHT22;49000;50.698;13.322;2023-11-19T00:49:17;2.60;99.90
62904;DHT22;49000;50.698;13.322;2023-11-19T00:51:42;2.50;99.90
62904;DHT22;49000;50.698;13.322;2023-11-19T00:54:08;2.50;99.90
62904;DHT22;49000;50.698;13.322;2023-11-19T00:56:33;2.60;99.90
62904;DHT22;49000;50.698;13.322;2023-11-19T00:58:59;2.60;99.90
62904;DHT22;49000;50.698;13.322;2023-11-19T01:01:25;2.60;99.90
62904;DHT22;49000;50.698;13.322;2023-11-19T01:03:51;2.40;99.90
62904;DHT22;49000;50.698;13.322;2023-11-19T01:06:27;2.60;99.90
62904;DHT22;49000;50.698;13.322;2023-11-19T01:08:52;2.60;99.90
62904;DHT22;49000;50.698;13.322;2023-11-19T01:11:22;2.20;99.90
62904;DHT22;49000;50.698;13.322;2023-11-19T01:13:48;2.50;99.90
62904;DHT22;49000;50.698;13.322;2023-11-19T01:16:13;2.60;99.90
62904;DHT22;49000;50.698;13.322;2023-11-19T01:18:39;2.20;99.90
62904;DHT22;49000;50.698;13.322;2023-11-19T01:21:05;2.60;99.90
62904;DHT22;49000;50.698;13.322;2023-11-19T01:23:30;2.60;99.90
62904;DHT22;49000;50.698;13.322;2023-11-19T01:25:56;2.60;99.90
62904;DHT22;49000;50.698;13.322;2023-11-19T01:28:21;2.70;99.90
62904;DHT22;49000;50.698;13.322;2023-11-19T01:30:50;2.50;99.90
62904;DHT22;49000;50.698;13.322;2023-11-19T01:33:15;2.60;99.90
62904;DHT22;49000;50.698;13.322;2023-11-19T01:35:41;2.30;99.90
62904;DHT22;49000;50.698;13.322;2023-11-19T01:38:06;2.50;99.90
62904;DHT22;49000;50.698;13.322;2023-11-19T01:40:34;2.10;99.90
62904;DHT22;49000;50.698;13.322;2023-11-19T01:42:59;2.60;99.90
62904;DHT22;49000;50.698;13.322;2023-11-19T01:45:29;2.50;99.90
62904;DHT22;49000;50.698;13.322;2023-11-19T01:47:56;2.60;99.90
62904;DHT22;49000;50.698;13.322;2023-11-19T01:50:23;2.60;99.90
62904;DHT22;49000;50.698;13.322;2023-11-19T01:52:54;2.50;99.90
62904;DHT22;49000;50.698;13.322;2023-11-19T01:55:20;2.60;99.90
62904;DHT22;49000;50.698;13.322;2023-11-19T01:57:48;2.50;99.90
62904;DHT22;49000;50.698;13.322;2023-11-19T02:00:14;2.60;99.90
62904;DHT22;49000;50.698;13.322;2023-11-19T02:02:41;2.60;99.90
62904;DHT22;49000;50.698;13.322;2023-11-19T02:05:07;2.40;99.90
62904;DHT22;49000;50.698;13.322;2023-11-19T02:07:32;2.30;99.90
62904;DHT22;49000;50.698;13.322;2023-11-19T02:09:58;2.50;99.90
62904;DHT22;49000;50.698;13.322;2023-11-19T02:12:26;2.50;99.90
62904;DHT22;49000;50.698;13.322;2023-11-19T02:14:53;2.70;99.90
62904;DHT22;49000;50.698;13.322;2023-11-19T02:17:45;2.60;99.90
62904;DHT22;49000;50.698;13.322;2023-11-19T02:20:11;2.30;99.90
62904;DHT22;49000;50.698;13.322;2023-11-19T02:22:38;2.10;99.90
62904;DHT22;49000;50.698;13.322;2023-11-19T02:25:07;2.60;99.90
62904;DHT22;49000;50.698;13.322;2023-11-19T02:30:08;2.60;99.90
62904;DHT22;49000;50.698;13.322;2023-11-19T02:32:34;2.70;99.90
62904;DHT22;49000;50.698;13.322;2023-11-19T02:35:01;2.60;99.90
62904;DHT22;49000;50.698;13.322;2023-11-19T02:37:27;2.70;99.90
62904;DHT22;49000;50.698;13.322;2023-11-19T02:39:53;2.80;99.90
62904;DHT22;49000;50.698;13.322;2023-11-19T02:42:19;2.40;99.90
62904;DHT22;49000;50.698;13.322;2023-11-19T02:44:45;2.70;99.90
62904;DHT22;49000;50.698;13.322;2023-11-19T02:47:11;2.90;99.90
62904;DHT22;49000;50.698;13.322;2023-11-19T02:49:37;2.90;99.90
62904;DHT22;49000;50.698;13.322;2023-11-19T02:52:03;2.60;99.90
62904;DHT22;49000;50.698;13.322;2023-11-19T02:54:31;3.00;99.90
62904;DHT22;49000;50.698;13.322;2023-11-19T02:57:00;2.70;99.90
62904;DHT22;49000;50.698;13.322;2023-11-19T02:59:27;2.80;99.90
62904;DHT22;49000;50.698;13.322;2023-11-19T03:01:53;2.80;99.90
62904;DHT22;49000;50.698;13.322;2023-11-19T03:04:19;2.80;99.90
62904;DHT22;49000;50.698;13.322;2023-11-19T03:06:48;2.60;99.90
62904;DHT22;49000;50.698;13.322;2023-11-19T03:09:14;2.60;99.90
62904;DHT22;49000;50.698;13.322;2023-11-19T03:11:39;2.80;99.90
62904;DHT22;49000;50.698;13.322;2023-11-19T03:14:05;2.60;99.90
62904;DHT22;49000;50.698;13.322;2023-11-19T03:16:30;2.40;99.90
62904;DHT22;49000;50.698;13.322;2023-11-19T03:18:56;2.60;99.90
62904;DHT22;49000;50.698;13.322;2023-11-19T03:21:32;2.90;99.90
62904;DHT22;49000;50.698;13.322;2023-11-19T03:23:58;2.80;99.90
62904;DHT22;49000;50.698;13.322;2023-11-19T03:26:27;2.60;99.90
62904;DHT22;49000;50.698;13.322;2023-11-19T03:28:53;2.80;99.90
62904;DHT22;49000;50.698;13.322;2023-11-19T03:31:18;2.80;99.90
62904;DHT22;49000;50.698;13.322;2023-11-19T03:33:44;2.90;99.90
62904;DHT22;49000;50.698;13.322;2023-11-19T03:36:10;3.10;99.90
62904;DHT22;49000;50.698;13.322;2023-11-19T03:38:36;3.00;99.90
62904;DHT22;49000;50.698;13.322;2023-11-19T03:41:10;3.00;99.90
62904;DHT22;49000;50.698;13.322;2023-11-19T03:43:35;2.80;99.90
62904;DHT22;49000;50.698;13.322;2023-11-19T03:46:00;2.90;99.90
62904;DHT22;49000;50.698;13.322;2023-11-19T03:48:26;2.80;99.90
62904;DHT22;49000;50.698;13.322;2023-11-19T03:50:51;2.60;99.90
62904;DHT22;49000;50.698;13.322;2023-11-19T03:53:17;2.90;99.90
62904;DHT22;49000;50.698;13.322;2023-11-19T03:55:44;3.10;99.90
62904;DHT22;49000;50.698;13.322;2023-11-19T03:58:09;3.00;99.90
62904;DHT22;49000;50.698;13.322;2023-11-19T04:00:35;3.20;99.90
62904;DHT22;49000;50.698;13.322;2023-11-19T04:03:00;2.90;99.90
62904;DHT22;49000;50.698;13.322;2023-11-19T04:05:26;2.60;99.90
62904;DHT22;49000;50.698;13.322;2023-11-19T04:07:51;3.20;99.90
62904;DHT22;49000;50.698;13.322;2023-11-19T04:10:17;2.70;99.90
62904;DHT22;49000;50.698;13.322;2023-11-19T04:12:42;3.20;99.90
62904;DHT22;49000;50.698;13.322;2023-11-19T04:15:08;3.10;99.90
62904;DHT22;49000;50.698;13.322;2023-11-19T04:17:34;3.10;99.90
62904;DHT22;49000;50.698;13.322;2023-11-19T04:19:59;3.20;99.90
62904;DHT22;49000;50.698;13.322;2023-11-19T04:22:25;3.40;99.90
62904;DHT22;49000;50.698;13.322;2023-11-19T04:24:51;3.30;99.90
62904;DHT22;49000;50.698;13.322;2023-11-19T04:27:17;3.40;99.90
62904;DHT22;49000;50.698;13.322;2023-11-19T04:29:42;3.50;99.90
62904;DHT22;49000;50.698;13.322;2023-11-19T04:32:08;3.30;99.90
62904;DHT22;49000;50.698;13.322;2023-11-19T04:34:34;3.30;99.90
62904;DHT22;49000;50.698;13.322;2023-11-19T04:36:59;3.30;99.90
62904;DHT22;49000;50.698;13.322;2023-11-19T04:39:29;3.60;99.90
62904;DHT22;49000;50.698;13.322;2023-11-19T04:41:54;3.40;99.90
62904;DHT22;49000;50.698;13.322;2023-11-19T04:44:20;3.40;99.90
62904;DHT22;49000;50.698;13.322;2023-11-19T04:46:46;3.20;99.90
62904;DHT22;49000;50.698;13.322;2023-11-19T04:49:12;3.60;99.90
62904;DHT22;49000;50.698;13.322;2023-11-19T04:51:41;3.70;99.90
62904;DHT22;49000;50.698;13.322;2023-11-19T04:54:11;3.70;99.90
62904;DHT22;49000;50.698;13.322;2023-11-19T04:56:37;3.70;99.90
62904;DHT22;49000;50.698;13.322;2023-11-19T04:59:03;3.20;99.90
62904;DHT22;49000;50.698;13.322;2023-11-19T05:01:33;3.70;99.90
62904;DHT22;49000;50.698;13.322;2023-11-19T05:03:59;3.70;99.90
62904;DHT22;49000;50.698;13.322;2023-11-19T05:06:31;3.60;99.90
62904;DHT22;49000;50.698;13.322;2023-11-19T05:08:59;3.60;99.90
62904;DHT22;49000;50.698;13.322;2023-11-19T05:11:33;3.90;99.90
62904;DHT22;49000;50.698;13.322;2023-11-19T05:14:00;3.60;99.90
62904;DHT22;49000;50.698;13.322;2023-11-19T05:16:25;3.80;99.90
62904;DHT22;49000;50.698;13.322;2023-11-19T05:18:51;3.80;99.90
62904;DHT22;49000;50.698;13.322;2023-11-19T05:21:17;3.90;99.90
62904;DHT22;49000;50.698;13.322;2023-11-19T05:23:43;3.30;99.90
62904;DHT22;49000;50.698;13.322;2023-11-19T05:26:08;3.60;99.90
62904;DHT22;49000;50.698;13.322;2023-11-19T05:28:37;3.90;99.90
62904;DHT22;49000;50.698;13.322;2023-11-19T05:31:03;3.80;99.90
62904;DHT22;49000;50.698;13.322;2023-11-19T05:33:28;4.00;99.90
62904;DHT22;49000;50.698;13.322;2023-11-19T05:35:54;3.60;99.90
62904;DHT22;49000;50.698;13.322;2023-11-19T05:38:19;3.90;99.90
62904;DHT22;49000;50.698;13.322;2023-11-19T05:40:46;3.50;99.90
62904;DHT22;49000;50.698;13.322;2023-11-19T05:43:13;3.80;99.90
62904;DHT22;49000;50.698;13.322;2023-11-19T05:45:40;3.90;99.90
62904;DHT22;49000;50.698;13.322;2023-11-19T05:48:05;4.00;99.90
62904;DHT22;49000;50.698;13.322;2023-11-19T05:50:31;3.90;99.90
62904;DHT22;49000;50.698;13.322;2023-11-19T05:52:56;3.90;99.90
62904;DHT22;49000;50.698;13.322;2023-11-19T05:55:22;4.00;99.90
62904;DHT22;49000;50.698;13.322;2023-11-19T05:57:48;4.00;99.90
62904;DHT22;49000;50.698;13.322;2023-11-19T06:00:14;4.20;99.90
62904;DHT22;49000;50.698;13.322;2023-11-19T06:02:40;4.10;99.90
62904;DHT22;49000;50.698;13.322;2023-11-19T06:05:06;4.30;99.90
62904;DHT22;49000;50.698;13.322;2023-11-19T06:07:32;4.10;99.90
62904;DHT22;49000;50.698;13.322;2023-11-19T06:09:58;4.30;99.90
62904;DHT22;49000;50.698;13.322;2023-11-19T06:12:24;4.20;99.90
62904;DHT22;49000;50.698;13.322;2023-11-19T06:14:49;4.10;99.90
62904;DHT22;49000;50.698;13.322;2023-11-19T06:17:15;4.30;99.90
62904;DHT22;49000;50.698;13.322;2023-11-19T06:19:40;4.40;99.90
62904;DHT22;49000;50.698;13.322;2023-11-19T06:22:06;4.50;99.90
62904;DHT22;49000;50.698;13.322;2023-11-19T06:24:32;4.30;99.90
62904;DHT22;49000;50.698;13.322;2023-11-19T06:26:57;4.50;99.90
62904;DHT22;49000;50.698;13.322;2023-11-19T06:29:23;4.30;99.90
62904;DHT22;49000;50.698;13.322;2023-11-19T06:31:49;4.10;99.90
62904;DHT22;49000;50.698;13.322;2023-11-19T06:34:15;4.40;99.90
62904;DHT22;49000;50.698;13.322;2023-11-19T06:36:40;4.60;99.90
62904;DHT22;49000;50.698;13.322;2023-11-19T06:39:06;4.70;99.90
62904;DHT22;49000;50.698;13.322;2023-11-19T06:41:31;5.00;99.90
62904;DHT22;49000;50.698;13.322;2023-11-19T06:43:57;5.10;99.90
62904;DHT22;49000;50.698;13.322;2023-11-19T06:46:22;5.60;99.90
62904;DHT22;49000;50.698;13.322;2023-11-19T06:48:48;5.50;99.90
62904;DHT22;49000;50.698;13.322;2023-11-19T06:51:13;5.70;99.90
62904;DHT22;49000;50.698;13.322;2023-11-19T06:53:39;5.70;99.90
62904;DHT22;49000;50.698;13.322;2023-11-19T06:56:10;5.70;99.90
62904;DHT22;49000;50.698;13.322;2023-11-19T06:58:42;5.70;99.90
62904;DHT22;49000;50.698;13.322;2023-11-19T07:01:08;5.80;99.90
62904;DHT22;49000;50.698;13.322;2023-11-19T07:03:35;5.90;99.90
62904;DHT22;49000;50.698;13.322;2023-11-19T07:06:00;5.50;99.90
62904;DHT22;49000;50.698;13.322;2023-11-19T07:08:26;5.90;99.90
62904;DHT22;49000;50.698;13.322;2023-11-19T07:10:52;6.00;99.90
62904;DHT22;49000;50.698;13.322;2023-11-19T07:13:17;6.00;99.90
62904;DHT22;49000;50.698;13.322;2023-11-19T07:15:44;6.20;99.90
62904;DHT22;49000;50.698;13.322;2023-11-19T07:18:10;5.70;99.90
62904;DHT22;49000;50.698;13.322;2023-11-19T07:20:37;6.10;99.90
62904;DHT22;49000;50.698;13.322;2023-11-19T07:23:03;6.00;99.90
62904;DHT22;49000;50.698;13.322;2023-11-19T07:25:29;6.10;99.90
62904;DHT22;49000;50.698;13.322;2023-11-19T07:27:54;6.20;99.90
62904;DHT22;49000;50.698;13.322;2023-11-19T07:30:21;6.20;99.90
62904;DHT22;49000;50.698;13.322;2023-11-19T07:32:46;6.40;99.90
62904;DHT22;49000;50.698;13.322;2023-11-19T07:35:12;5.90;99.90
62904;DHT22;49000;50.698;13.322;2023-11-19T07:37:37;6.10;99.90
62904;DHT22;49000;50.698;13.322;2023-11-19T07:40:03;6.40;99.90
62904;DHT22;49000;50.698;13.322;2023-11-19T07:42:29;6.60;99.90
62904;DHT22;49000;50.698;13.322;2023-11-19T07:44:54;6.60;99.90
62904;DHT22;49000;50.698;13.322;2023-11-19T07:47:21;6.50;99.90
62904;DHT22;49000;50.698;13.322;2023-11-19T07:49:49;6.70;99.90
62904;DHT22;49000;50.698;13.322;2023-11-19T07:52:15;6.40;99.90
62904;DHT22;49000;50.698;13.322;2023-11-19T07:54:41;6.70;99.90
62904;DHT22;49000;50.698;13.322;2023-11-19T07:57:06;6.70;99.90
62904;DHT22;49000;50.698;13.322;2023-11-19T07:59:32;6.70;99.90
62904;DHT22;49000;50.698;13.322;2023-11-19T08:01:57;6.90;99.90
62904;DHT22;49000;50.698;13.322;2023-11-19T08:04:23;6.90;99.90
62904;DHT22;49000;50.698;13.322;2023-11-19T08:06:49;6.80;99.90
62904;DHT22;49000;50.698;13.322;2023-11-19T08:09:14;7.10;99.90
62904;DHT22;49000;50.698;13.322;2023-11-19T08:11:41;7.10;99.90
62904;DHT22;49000;50.698;13.322;2023-11-19T08:14:07;6.70;99.90
62904;DHT22;49000;50.698;13.322;2023-11-19T08:16:32;6.70;99.90
62904;DHT22;49000;50.698;13.322;2023-11-19T08:18:58;6.60;99.90
62904;DHT22;49000;50.698;13.322;2023-11-19T08:21:24;7.20;99.90
62904;DHT22;49000;50.698;13.322;2023-11-19T08:23:49;7.40;99.90
62904;DHT22;49000;50.698;13.322;2023-11-19T08:26:15;7.30;99.90
62904;DHT22;49000;50.698;13.322;2023-11-19T08:28:41;7.40;99.90
62904;DHT22;49000;50.698;13.322;2023-11-19T08:31:06;7.40;99.90
62904;DHT22;49000;50.698;13.322;2023-11-19T08:33:32;7.40;99.90
62904;DHT22;49000;50.698;13.322;2023-11-19T08:35:58;7.60;99.90
62904;DHT22;49000;50.698;13.322;2023-11-19T08:38:24;7.30;99.90
62904;DHT22;49000;50.698;13.322;2023-11-19T08:40:50;7.50;99.90
62904;DHT22;49000;50.698;13.322;2023-11-19T08:43:15;7.50;99.90
62904;DHT22;49000;50.698;13.322;2023-11-19T08:45:41;7.70;99.90
62904;DHT22;49000;50.698;13.322;2023-11-19T08:48:07;7.40;99.90
62904;DHT22;49000;50.698;13.322;2023-11-19T08:50:32;7.80;99.90
62904;DHT22;49000;50.698;13.322;2023-11-19T08:52:58;7.80;99.90
62904;DHT22;49000;50.698;13.322;2023-11-19T08:55:23;7.60;99.90
62904;DHT22;49000;50.698;13.322;2023-11-19T08:57:49;7.70;99.90
62904;DHT22;49000;50.698;13.322;2023-11-19T09:00:14;8.10;99.90
62904;DHT22;49000;50.698;13.322;2023-11-19T09:02:40;8.10;99.90
62904;DHT22;49000;50.698;13.322;2023-11-19T09:05:06;8.00;99.90
62904;DHT22;49000;50.698;13.322;2023-11-19T09:07:33;8.20;99.90
62904;DHT22;49000;50.698;13.322;2023-11-19T09:09:58;8.30;99.90
62904;DHT22;49000;50.698;13.322;2023-11-19T09:12:24;8.30;99.90
62904;DHT22;49000;50.698;13.322;2023-11-19T09:14:49;8.00;99.90
62904;DHT22;49000;50.698;13.322;2023-11-19T09:17:15;8.30;99.90
62904;DHT22;49000;50.698;13.322;2023-11-19T09:19:40;8.40;99.90
62904;DHT22;49000;50.698;13.322;2023-11-19T09:22:06;8.40;99.90
62904;DHT22;49000;50.698;13.322;2023-11-19T09:24:31;8.40;99.90
62904;DHT22;49000;50.698;13.322;2023-11-19T09:26:57;8.60;99.90
62904;DHT22;49000;50.698;13.322;2023-11-19T09:29:23;8.50;99.90
62904;DHT22;49000;50.698;13.322;2023-11-19T09:31:49;8.60;99.90
62904;DHT22;49000;50.698;13.322;2023-11-19T09:34:14;8.70;99.90
62904;DHT22;49000;50.698;13.322;2023-11-19T09:36:40;8.80;99.90
62904;DHT22;49000;50.698;13.322;2023-11-19T09:39:10;8.90;99.90
62904;DHT22;49000;50.698;13.322;2023-11-19T09:41:35;8.90;99.90
62904;DHT22;49000;50.698;13.322;2023-11-19T09:44:01;8.90;99.90
62904;DHT22;49000;50.698;13.322;2023-11-19T09:46:26;8.90;99.90
62904;DHT22;49000;50.698;13.322;2023-11-19T09:48:53;8.80;99.90
62904;DHT22;49000;50.698;13.322;2023-11-19T09:51:20;9.00;99.90
62904;DHT22;49000;50.698;13.322;2023-11-19T09:53:46;9.00;99.90
62904;DHT22;49000;50.698;13.322;2023-11-19T09:56:12;9.00;99.90
62904;DHT22;49000;50.698;13.322;2023-11-19T09:58:38;9.10;99.90
62904;DHT22;49000;50.698;13.322;2023-11-19T10:01:03;9.10;99.90
62904;DHT22;49000;50.698;13.322;2023-11-19T10:03:33;9.20;99.90
62904;DHT22;49000;50.698;13.322;2023-11-19T10:06:10;9.20;99.90
62904;DHT22;49000;50.698;13.322;2023-11-19T10:08:39;9.20;99.90
62904;DHT22;49000;50.698;13.322;2023-11-19T10:11:06;9.20;99.90
62904;DHT22;49000;50.698;13.322;2023-11-19T10:13:35;9.20;99.90
62904;DHT22;49000;50.698;13.322;2023-11-19T10:16:07;9.10;99.90
62904;DHT22;49000;50.698;13.322;2023-11-19T10:18:33;9.10;99.90
62904;DHT22;49000;50.698;13.322;2023-11-19T10:21:06;9.10;99.90
62904;DHT22;49000;50.698;13.322;2023-11-19T10:23:51;9.20;99.90
62904;DHT22;49000;50.698;13.322;2023-11-19T10:26:17;9.00;99.90
62904;DHT22;49000;50.698;13.322;2023-11-19T10:28:43;9.00;99.90
62904;DHT22;49000;50.698;13.322;2023-11-19T10:31:12;8.90;99.90
62904;DHT22;49000;50.698;13.322;2023-11-19T10:33:38;9.00;99.90
62904;DHT22;49000;50.698;13.322;2023-11-19T10:36:04;8.70;99.90
62904;DHT22;49000;50.698;13.322;2023-11-19T10:38:30;9.10;99.90
62904;DHT22;49000;50.698;13.322;2023-11-19T10:40:56;9.10;99.90
62904;DHT22;49000;50.698;13.322;2023-11-19T10:43:22;9.00;99.90
62904;DHT22;49000;50.698;13.322;2023-11-19T10:45:48;9.10;99.90
62904;DHT22;49000;50.698;13.322;2023-11-19T10:48:14;9.10;99.90
62904;DHT22;49000;50.698;13.322;2023-11-19T10:50:42;9.20;99.90
62904;DHT22;49000;50.698;13.322;2023-11-19T10:53:09;9.20;99.90
62904;DHT22;49000;50.698;13.322;2023-11-19T10:55:36;9.20;99.90
62904;DHT22;49000;50.698;13.322;2023-11-19T10:58:08;9.20;99.90
62904;DHT22;49000;50.698;13.322;2023-11-19T11:03:17;9.40;99.90
62904;DHT22;49000;50.698;13.322;2023-11-19T11:05:43;9.50;99.90
62904;DHT22;49000;50.698;13.322;2023-11-19T11:08:12;9.70;99.90
62904;DHT22;49000;50.698;13.322;2023-11-19T11:10:59;9.70;99.90
62904;DHT22;49000;50.698;13.322;2023-11-19T11:13:26;9.80;99.90
62904;DHT22;49000;50.698;13.322;2023-11-19T11:15:55;9.90;99.90
62904;DHT22;49000;50.698;13.322;2023-11-19T11:18:23;9.90;99.90
62904;DHT22;49000;50.698;13.322;2023-11-19T11:20:52;10.10;99.90
62904;DHT22;49000;50.698;13.322;2023-11-19T11:23:47;10.20;99.90
62904;DHT22;49000;50.698;13.322;2023-11-19T11:26:46;10.40;99.90
62904;DHT22;49000;50.698;13.322;2023-11-19T11:32:24;10.60;99.90
62904;DHT22;49000;50.698;13.322;2023-11-19T11:38:04;10.20;99.90
62904;DHT22;49000;50.698;13.322;2023-11-19T11:40:32;10.10;99.90
62904;DHT22;49000;50.698;13.322;2023-11-19T11:42:57;9.90;99.90
62904;DHT22;49000;50.698;13.322;2023-11-19T11:45:39;9.90;99.90
62904;DHT22;49000;50.698;13.322;2023-11-19T11:48:19;9.80;99.90
62904;DHT22;49000;50.698;13.322;2023-11-19T11:50:56;9.80;99.90
62904;DHT22;49000;50.698;13.322;2023-11-19T11:53:23;9.80;99.90
62904;DHT22;49000;50.698;13.322;2023-11-19T11:58:40;9.70;99.90
62904;DHT22;49000;50.698;13.322;2023-11-19T12:01:05;9.70;99.90
62904;DHT22;49000;50.698;13.322;2023-11-19T12:03:33;9.60;99.90
62904;DHT22;49000;50.698;13.322;2023-11-19T12:05:58;9.70;99.90
62904;DHT22;49000;50.698;13.322;2023-11-19T12:08:28;9.70;99.90
62904;DHT22;49000;50.698;13.322;2023-11-19T12:10:56;9.70;99.90
62904;DHT22;49000;50.698;13.322;2023-11-19T12:13:23;9.60;99.90
62904;DHT22;49000;50.698;13.322;2023-11-19T12:20:50;10.30;99.90
62904;DHT22;49000;50.698;13.322;2023-11-19T12:23:15;10.70;99.90
62904;DHT22;49000;50.698;13.322;2023-11-19T12:25:41;10.80;99.90
62904;DHT22;49000;50.698;13.322;2023-11-19T12:28:11;10.80;99.90
62904;DHT22;49000;50.698;13.322;2023-11-19T12:30:37;10.60;99.90
62904;DHT22;49000;50.698;13.322;2023-11-19T12:33:11;10.40;99.90
62904;DHT22;49000;50.698;13.322;2023-11-19T12:35:43;10.20;99.90
62904;DHT22;49000;50.698;13.322;2023-11-19T12:40:44;9.70;99.90
62904;DHT22;49000;50.698;13.322;2023-11-19T12:43:09;9.60;99.90
62904;DHT22;49000;50.698;13.322;2023-11-19T12:45:35;9.50;99.90
62904;DHT22;49000;50.698;13.322;2023-11-19T12:48:08;9.60;99.90
62904;DHT22;49000;50.698;13.322;2023-11-19T12:53:18;9.50;99.90
62904;DHT22;49000;50.698;13.322;2023-11-19T12:55:44;9.50;99.90
62904;DHT22;49000;50.698;13.322;2023-11-19T12:58:10;9.40;99.90
62904;DHT22;49000;50.698;13.322;2023-11-19T13:00:36;9.50;99.90
62904;DHT22;49000;50.698;13.322;2023-11-19T13:03:01;9.40;99.90
62904;DHT22;49000;50.698;13.322;2023-11-19T13:05:33;9.40;99.90
62904;DHT22;49000;50.698;13.322;2023-11-19T13:08:03;9.40;99.90
62904;DHT22;49000;50.698;13.322;2023-11-19T13:10:34;9.50;99.90
62904;DHT22;49000;50.698;13.322;2023-11-19T13:13:15;9.30;99.90
62904;DHT22;49000;50.698;13.322;2023-11-19T13:15:40;9.20;99.90
62904;DHT22;49000;50.698;13.322;2023-11-19T13:18:06;9.20;99.90
62904;DHT22;49000;50.698;13.322;2023-11-19T13:20:32;9.20;99.90
62904;DHT22;49000;50.698;13.322;2023-11-19T13:23:00;9.30;99.90
62904;DHT22;49000;50.698;13.322;2023-11-19T13:25:27;9.30;99.90
62904;DHT22;49000;50.698;13.322;2023-11-19T13:27:53;9.20;99.90
62904;DHT22;49000;50.698;13.322;2023-11-19T13:30:18;9.20;99.90
62904;DHT22;49000;50.698;13.322;2023-11-19T13:32:45;9.20;99.90
62904;DHT22;49000;50.698;13.322;2023-11-19T13:35:12;9.40;99.90
62904;DHT22;49000;50.698;13.322;2023-11-19T13:37:38;9.60;99.90
62904;DHT22;49000;50.698;13.322;2023-11-19T13:40:04;9.70;99.90
62904;DHT22;49000;50.698;13.322;2023-11-19T13:42:30;9.80;99.90
62904;DHT22;49000;50.698;13.322;2023-11-19T13:44:55;9.90;99.90
62904;DHT22;49000;50.698;13.322;2023-11-19T13:47:21;9.90;99.90
62904;DHT22;49000;50.698;13.322;2023-11-19T13:49:47;9.80;99.90
62904;DHT22;49000;50.698;13.322;2023-11-19T13:52:12;9.70;99.90
62904;DHT22;49000;50.698;13.322;2023-11-19T13:54:38;9.60;99.90
62904;DHT22;49000;50.698;13.322;2023-11-19T13:57:04;9.20;99.90
62904;DHT22;49000;50.698;13.322;2023-11-19T13:59:31;9.20;99.90
62904;DHT22;49000;50.698;13.322;2023-11-19T14:01:58;9.10;99.90
62904;DHT22;49000;50.698;13.322;2023-11-19T14:04:23;8.70;99.90
62904;DHT22;49000;50.698;13.322;2023-11-19T14:06:49;8.80;99.90
62904;DHT22;49000;50.698;13.322;2023-11-19T14:09:14;9.20;99.90
62904;DHT22;49000;50.698;13.322;2023-11-19T14:11:40;9.20;99.90
62904;DHT22;49000;50.698;13.322;2023-11-19T14:14:06;9.30;99.90
62904;DHT22;49000;50.698;13.322;2023-11-19T14:16:31;9.10;99.90
62904;DHT22;49000;50.698;13.322;2023-11-19T14:18:57;9.20;99.90
62904;DHT22;49000;50.698;13.322;2023-11-19T14:21:23;8.40;99.90
62904;DHT22;49000;50.698;13.322;2023-11-19T14:23:50;8.50;99.90
62904;DHT22;49000;50.698;13.322;2023-11-19T14:26:16;8.70;99.90
62904;DHT22;49000;50.698;13.322;2023-11-19T14:28:41;8.60;99.90
62904;DHT22;49000;50.698;13.322;2023-11-19T14:31:07;8.20;99.90
62904;DHT22;49000;50.698;13.322;2023-11-19T14:33:32;8.60;99.90
62904;DHT22;49000;50.698;13.322;2023-11-19T14:36:00;8.60;99.90
62904;DHT22;49000;50.698;13.322;2023-11-19T14:38:26;8.20;99.90
62904;DHT22;49000;50.698;13.322;2023-11-19T14:40:51;8.70;99.90
62904;DHT22;49000;50.698;13.322;2023-11-19T14:43:17;8.60;99.90
62904;DHT22;49000;50.698;13.322;2023-11-19T14:45:42;8.60;99.90
62904;DHT22;49000;50.698;13.322;2023-11-19T14:48:08;8.40;99.90
62904;DHT22;49000;50.698;13.322;2023-11-19T14:50:35;8.40;99.90
62904;DHT22;49000;50.698;13.322;2023-11-19T14:53:01;8.40;99.90
62904;DHT22;49000;50.698;13.322;2023-11-19T14:55:26;8.40;99.90
62904;DHT22;49000;50.698;13.322;2023-11-19T14:57:52;8.30;99.90
62904;DHT22;49000;50.698;13.322;2023-11-19T15:00:18;8.20;99.90
62904;DHT22;49000;50.698;13.322;2023-11-19T15:02:43;8.20;99.90
62904;DHT22;49000;50.698;13.322;2023-11-19T15:05:09;7.80;99.90
62904;DHT22;49000;50.698;13.322;2023-11-19T15:07:38;8.10;99.90
62904;DHT22;49000;50.698;13.322;2023-11-19T15:10:05;8.20;99.90
62904;DHT22;49000;50.698;13.322;2023-11-19T15:12:35;8.20;99.90
62904;DHT22;49000;50.698;13.322;2023-11-19T15:15:06;8.10;99.90
62904;DHT22;49000;50.698;13.322;2023-11-19T15:17:31;8.00;99.90
62904;DHT22;49000;50.698;13.322;2023-11-19T15:19:57;7.90;99.90
62904;DHT22;49000;50.698;13.322;2023-11-19T15:22:22;7.60;99.90
62904;DHT22;49000;50.698;13.322;2023-11-19T15:24:48;7.80;99.90
62904;DHT22;49000;50.698;13.322;2023-11-19T15:27:13;7.80;99.90
62904;DHT22;49000;50.698;13.322;2023-11-19T15:29:39;7.90;99.90
62904;DHT22;49000;50.698;13.322;2023-11-19T15:32:05;7.80;99.90
62904;DHT22;49000;50.698;13.322;2023-11-19T15:34:33;7.60;99.90
62904;DHT22;49000;50.698;13.322;2023-11-19T15:36:59;7.80;99.90
62904;DHT22;49000;50.698;13.322;2023-11-19T15:39:25;7.80;99.90
62904;DHT22;49000;50.698;13.322;2023-11-19T15:41:52;7.50;99.90
62904;DHT22;49000;50.698;13.322;2023-11-19T15:44:18;7.50;99.90
62904;DHT22;49000;50.698;13.322;2023-11-19T15:46:43;7.60;99.90
62904;DHT22;49000;50.698;13.322;2023-11-19T15:49:09;7.80;99.90
62904;DHT22;49000;50.698;13.322;2023-11-19T15:51:34;7.00;99.90